createdAt,value
2022-09-13T00:01:05.267Z,15.65
2022-09-13T00:06:09.653Z,14.75
2022-09-13T00:11:16.105Z,14.77
2022-09-13T00:16:20.540Z,13.80
2022-09-13T00:21:24.772Z,14.32
2022-09-13T00:26:27.900Z,14.25
2022-09-13T00:31:30.423Z,14.95
2022-09-13T00:36:34.194Z,16.13
2022-09-13T00:41:36.577Z,15.63
2022-09-13T00:46:40.185Z,15.68
2022-09-13T00:51:46.601Z,14.55
2022-09-13T00:56:50.549Z,15.80
2022-09-13T01:01:54.664Z,16.02
2022-09-13T01:07:00.476Z,15.80
2022-09-13T01:12:08.201Z,16.88
2022-09-13T01:17:10.649Z,17.48
2022-09-13T01:22:35.341Z,16.80
2022-09-13T01:27:59.260Z,15.38
2022-09-13T01:33:08.234Z,16.70
2022-09-13T01:38:19.016Z,15.48
2022-09-13T01:43:26.602Z,15.18
2022-09-13T01:48:34.436Z,15.70
2022-09-13T01:53:41.559Z,14.77
2022-09-13T01:58:47.834Z,15.30
2022-09-13T02:03:53.732Z,14.93
2022-09-13T02:08:58.160Z,15.60
2022-09-13T02:14:05.932Z,16.23
2022-09-13T02:19:13.335Z,15.50
2022-09-13T02:24:17.406Z,16.65
2022-09-13T02:29:21.478Z,16.00
2022-09-13T02:34:28.571Z,16.42
2022-09-13T02:39:33.277Z,16.90
2022-09-13T02:44:37.561Z,16.67
2022-09-13T02:49:51.483Z,16.00
2022-09-13T02:54:55.373Z,16.58
2022-09-13T02:59:57.814Z,17.15
2022-09-13T03:05:02.155Z,17.70
2022-09-13T03:10:07.289Z,17.35
2022-09-13T03:15:14.219Z,17.30
2022-09-13T03:20:20.011Z,16.08
2022-09-13T03:25:28.353Z,16.05
2022-09-13T03:30:31.629Z,15.48
2022-09-13T03:35:38.512Z,16.73
2022-09-13T03:40:43.126Z,17.30
2022-09-13T03:45:49.445Z,16.35
2022-09-13T03:50:53.830Z,15.60
2022-09-13T03:55:56.257Z,15.05
2022-09-13T04:00:58.715Z,16.43
2022-09-13T04:06:03.542Z,17.97
2022-09-13T04:11:06.065Z,17.02
2022-09-13T04:16:08.729Z,17.35
2022-09-13T04:21:12.612Z,19.17
2022-09-13T04:26:15.003Z,18.73
2022-09-13T04:31:17.458Z,18.47
2022-09-13T04:36:21.424Z,17.77
2022-09-13T04:41:24.214Z,20.77
2022-09-13T04:46:26.738Z,22.83
2022-09-13T04:51:30.634Z,22.33
2022-09-13T04:56:33.123Z,21.90
2022-09-13T05:01:35.772Z,25.58
2022-09-13T05:06:39.827Z,24.65
2022-09-13T05:11:42.522Z,23.63
2022-09-13T05:16:45.974Z,25.05
2022-09-13T05:21:49.709Z,26.83
2022-09-13T05:26:52.041Z,25.98
2022-09-13T05:31:54.490Z,24.90
2022-09-13T05:36:58.288Z,26.27
2022-09-13T05:42:01.008Z,23.48
2022-09-13T05:47:03.384Z,22.80
2022-09-13T05:52:07.173Z,21.60
2022-09-13T05:57:09.679Z,22.25
2022-09-13T06:02:12.123Z,22.02
2022-09-13T06:07:15.899Z,20.87
2022-09-13T06:12:18.330Z,21.48
2022-09-13T06:17:20.777Z,20.83
2022-09-13T06:22:24.671Z,18.65
2022-09-13T06:27:27.074Z,18.33
2022-09-13T06:32:29.512Z,18.55
2022-09-13T06:37:33.306Z,17.70
2022-09-13T06:42:35.844Z,18.98
2022-09-13T06:47:38.736Z,17.45
2022-09-13T06:52:42.582Z,17.55
2022-09-13T06:57:45.031Z,17.45
2022-09-13T07:02:51.374Z,16.90
2022-09-13T07:07:55.180Z,16.38
2022-09-13T07:12:58.159Z,17.33
2022-09-13T07:23:04.338Z,16.08
2022-09-13T07:28:27.737Z,17.73
2022-09-13T07:33:31.285Z,15.65
2022-09-13T07:38:36.747Z,17.80
2022-09-13T07:43:39.134Z,17.27
2022-09-13T07:48:42.312Z,19.45
2022-09-13T07:53:46.806Z,19.98
2022-09-13T07:58:50.303Z,16.98
2022-09-13T08:03:53.488Z,17.30
2022-09-13T08:08:57.602Z,14.00
2022-09-13T08:14:00.056Z,14.07
2022-09-13T08:19:03.573Z,12.50
2022-09-13T08:24:08.737Z,11.52
2022-09-13T08:29:12.427Z,11.02
2022-09-13T08:34:15.979Z,9.80
2022-09-13T08:39:19.712Z,8.75
2022-09-13T08:44:26.837Z,7.60
2022-09-13T08:49:31.378Z,7.38
2022-09-13T08:54:35.146Z,7.10
2022-09-13T08:59:42.164Z,7.90
2022-09-13T09:04:47.278Z,7.55
2022-09-13T09:09:53.530Z,5.50
2022-09-13T09:14:59.859Z,5.05
2022-09-13T09:20:07.544Z,5.18
2022-09-13T09:25:13.028Z,5.13
2022-09-13T09:30:15.672Z,3.92
2022-09-13T09:35:22.141Z,4.15
2022-09-13T09:40:31.534Z,4.13
2022-09-13T09:45:36.782Z,4.13
2022-09-13T09:50:40.678Z,3.70
2022-09-13T09:55:46.666Z,3.63
2022-09-13T10:00:53.012Z,2.22
2022-09-13T10:06:05.566Z,1.70
2022-09-13T10:11:09.397Z,1.52
2022-09-13T10:16:24.696Z,1.48
2022-09-13T10:21:28.152Z,1.30
2022-09-13T10:26:33.767Z,1.15
2022-09-13T10:31:38.073Z,1.63
2022-09-13T10:36:53.413Z,1.00
2022-09-13T10:41:59.149Z,1.33
2022-09-13T10:47:03.991Z,1.48
2022-09-13T10:52:24.359Z,1.20
2022-09-13T10:57:32.634Z,1.40
2022-09-13T11:02:47.626Z,1.23
2022-09-13T11:07:54.103Z,1.55
2022-09-13T11:13:00.611Z,1.65
2022-09-13T11:18:11.901Z,1.40
2022-09-13T11:23:29.422Z,1.30
2022-09-13T11:28:37.659Z,1.13
2022-09-13T11:33:46.890Z,1.00
2022-09-13T11:38:54.418Z,1.25
2022-09-13T11:44:03.233Z,0.82
2022-09-13T11:49:17.755Z,1.48
2022-09-13T11:54:25.130Z,0.80
2022-09-13T11:59:35.620Z,0.98
2022-09-13T12:04:39.938Z,0.77
2022-09-13T12:09:46.547Z,1.08
2022-09-13T12:14:53.363Z,0.80
2022-09-13T12:19:57.708Z,1.00
2022-09-13T12:25:03.813Z,0.70
2022-09-13T12:30:10.631Z,0.70
2022-09-13T12:35:19.674Z,0.82
2022-09-13T12:40:46.220Z,0.80
2022-09-13T12:46:00.673Z,0.88
2022-09-13T12:51:09.387Z,0.50
2022-09-13T12:56:27.245Z,1.10
2022-09-13T13:01:32.417Z,0.90
2022-09-13T13:06:36.779Z,0.60
2022-09-13T13:11:43.940Z,0.70
2022-09-13T13:16:49.649Z,0.85
2022-09-13T13:21:52.116Z,0.80
2022-09-13T13:26:55.365Z,0.75
2022-09-13T13:32:11.528Z,0.80
2022-09-13T13:37:32.719Z,0.77
2022-09-13T13:42:38.361Z,0.65
2022-09-13T13:48:03.714Z,1.10
2022-09-13T13:53:21.070Z,0.77
2022-09-13T13:58:28.090Z,0.60
2022-09-13T14:03:37.561Z,1.33
2022-09-13T14:08:46.993Z,0.90
2022-09-13T14:13:57.724Z,1.20
2022-09-13T14:19:06.939Z,0.77
2022-09-13T14:24:10.671Z,0.80
2022-09-13T14:29:17.658Z,0.65
2022-09-13T14:34:24.302Z,0.80
2022-09-13T14:39:27.706Z,0.80
2022-09-13T14:44:31.460Z,0.80
2022-09-13T14:49:36.382Z,0.90
2022-09-13T14:54:40.475Z,0.77
2022-09-13T14:59:48.023Z,0.80
2022-09-13T15:04:52.004Z,0.68
2022-09-13T15:09:57.012Z,0.57
2022-09-13T15:15:22.779Z,0.70
2022-09-13T15:20:26.150Z,0.50
2022-09-13T15:25:29.562Z,1.05
2022-09-13T15:30:39.270Z,0.50
2022-09-13T15:35:42.647Z,0.90
2022-09-13T15:40:48.197Z,0.75
2022-09-13T15:45:52.071Z,0.70
2022-09-13T15:51:05.558Z,0.60
2022-09-13T15:56:08.771Z,0.85
2022-09-13T16:01:13.629Z,0.70
2022-09-13T16:06:16.510Z,1.23
2022-09-13T16:11:18.882Z,1.05
2022-09-13T16:16:22.659Z,2.15
2022-09-13T16:21:25.106Z,2.22
2022-09-13T16:26:28.521Z,1.17
2022-09-13T16:31:32.452Z,2.40
2022-09-13T16:36:35.849Z,0.93
2022-09-13T16:41:39.579Z,1.08
2022-09-13T16:46:43.368Z,1.38
2022-09-13T16:51:45.812Z,1.17
2022-09-13T16:56:48.237Z,1.40
2022-09-13T17:01:53.281Z,1.40
2022-09-13T17:06:55.920Z,1.90
2022-09-13T17:11:58.309Z,1.20
2022-09-13T17:17:02.795Z,1.42
2022-09-13T17:22:08.056Z,1.00
2022-09-13T17:27:10.604Z,1.33
2022-09-13T17:32:14.418Z,1.10
2022-09-13T17:37:17.811Z,0.82
2022-09-13T17:42:23.409Z,1.70
2022-09-13T17:47:27.440Z,1.60
2022-09-13T17:52:34.652Z,1.65
2022-09-13T17:57:37.436Z,1.80
2022-09-13T18:02:44.674Z,2.20
2022-09-13T18:07:47.282Z,2.20
2022-09-13T18:12:49.794Z,2.17
2022-09-13T18:17:53.591Z,2.03
2022-09-13T18:22:55.945Z,2.55
2022-09-13T18:27:58.370Z,2.70
2022-09-13T18:33:02.142Z,2.33
2022-09-13T18:38:04.769Z,2.78
2022-09-13T18:43:07.322Z,3.10
2022-09-13T18:48:11.122Z,3.03
2022-09-13T18:53:13.493Z,3.13
2022-09-13T18:58:16.324Z,3.03
2022-09-13T19:03:20.218Z,2.60
2022-09-13T19:08:22.788Z,2.88
2022-09-13T19:13:25.240Z,3.15
2022-09-13T19:18:29.387Z,3.20
2022-09-13T19:23:55.506Z,3.35
2022-09-13T19:28:57.231Z,3.75
2022-09-13T19:34:02.208Z,3.03
2022-09-13T19:39:05.590Z,2.70
2022-09-13T19:44:08.489Z,2.60
2022-09-13T19:49:14.413Z,2.53
2022-09-13T19:54:18.719Z,2.47
2022-09-13T19:59:21.703Z,2.80
2022-09-13T20:04:26.022Z,2.10
2022-09-13T20:09:28.428Z,2.13
2022-09-13T20:14:32.754Z,2.70
2022-09-13T20:19:42.504Z,1.90
2022-09-13T20:24:47.397Z,2.03
2022-09-13T20:29:49.823Z,2.33
2022-09-13T20:34:53.518Z,2.43
2022-09-13T20:39:55.964Z,2.33
2022-09-13T20:44:58.415Z,2.67
2022-09-13T20:50:03.213Z,2.07
2022-09-13T20:55:06.122Z,2.08
2022-09-13T21:00:09.768Z,2.28
2022-09-13T21:05:13.514Z,2.05
2022-09-13T21:10:16.252Z,1.85
2022-09-13T21:15:18.740Z,2.20
2022-09-13T21:20:22.540Z,2.67
2022-09-13T21:25:25.365Z,2.30
2022-09-13T21:30:27.795Z,2.47
2022-09-13T21:35:31.615Z,2.23
2022-09-13T21:40:34.680Z,2.53
2022-09-13T21:45:37.154Z,2.28
2022-09-13T21:50:41.185Z,2.27
2022-09-13T21:55:43.622Z,2.67
2022-09-13T22:00:46.032Z,2.60
2022-09-13T22:05:57.041Z,2.87
2022-09-13T22:11:04.035Z,2.08
2022-09-13T22:16:07.559Z,2.20
2022-09-13T22:21:12.142Z,2.17
2022-09-13T22:26:15.755Z,2.65
2022-09-13T22:31:19.010Z,3.03
2022-09-13T22:41:26.050Z,2.30
2022-09-13T22:46:30.036Z,3.08
2022-09-13T22:51:32.641Z,2.97
2022-09-13T22:56:37.833Z,3.17
2022-09-13T23:01:40.315Z,2.78
2022-09-13T23:06:44.301Z,2.60
2022-09-13T23:11:48.514Z,2.83
2022-09-13T23:16:51.961Z,2.80
2022-09-13T23:21:54.868Z,3.05
2022-09-13T23:26:59.771Z,2.75
2022-09-13T23:32:02.586Z,3.00
2022-09-13T23:37:05.167Z,3.25
2022-09-13T23:42:09.242Z,3.83
2022-09-13T23:47:11.602Z,3.60
2022-09-13T23:52:14.046Z,3.85
2022-09-13T23:57:17.786Z,4.00
